Time;durP1;ratioP1;P1;durP2;ratioP2;P2;SDS_P1;SDS_P2;PMS_P1;PMS_P2;Temp;Humidity;BMP_temperature;BMP_pressure;BME280_temperature;BME280_humidity;BME280_pressure;Samples;Min_cycle;Max_cycle;Signal;HPM_P1;HPM_P2
2022/12/29 00:01:30;;;;;;;6.40;4.50;;;;;;;10.19;100.00;99914.78;4836648;29;20541;-90
2022/12/29 00:03:56;;;;;;;4.70;3.67;;;;;;;10.30;100.00;99928.34;4837109;29;20097;-90
2022/12/29 00:06:21;;;;;;;4.20;3.43;;;;;;;10.21;100.00;99910.78;4838226;29;20482;-91
2022/12/29 00:08:47;;;;;;;4.23;3.63;;;;;;;10.16;100.00;99923.34;4839963;29;20562;-89
2022/12/29 00:11:16;;;;;;;3.97;3.37;;;;;;;10.17;100.00;99914.19;4840877;29;20033;-90
2022/12/29 00:16:26;;;;;;;4.78;3.38;;;;;;;10.25;100.00;99928.22;4854625;29;20036;-90
2022/12/29 00:18:52;;;;;;;2.23;2.00;;;;;;;10.21;100.00;99908.06;4834449;29;20133;-90
2022/12/29 00:35:52;;;;;;;2.20;1.30;;;;;;;10.05;100.00;99922.28;4849961;29;20052;-90
2022/12/29 00:46:29;;;;;;;3.08;1.20;;;;;;;9.75;100.00;99888.78;4857270;29;20052;-90
2022/12/29 00:51:39;;;;;;;1.73;1.60;;;;;;;9.63;100.00;99855.47;4850500;29;20522;-91
2022/12/29 00:54:04;;;;;;;3.23;2.20;;;;;;;9.60;100.00;99862.16;4851282;29;20037;-90
2022/12/29 00:56:30;;;;;;;4.03;2.80;;;;;;;9.44;100.00;99860.09;4850035;29;20029;-90
2022/12/29 00:58:55;;;;;;;2.33;2.00;;;;;;;9.44;100.00;99857.38;4841232;29;20058;-90
2022/12/29 01:01:20;;;;;;;2.40;2.10;;;;;;;9.46;100.00;99861.53;4836906;29;20066;-90
2022/12/29 01:03:46;;;;;;;1.87;1.77;;;;;;;9.45;100.00;99862.56;4854018;29;20034;-90
2022/12/29 01:06:12;;;;;;;4.43;2.57;;;;;;;9.38;100.00;99861.81;4840750;29;20085;-90
2022/12/29 01:08:37;;;;;;;2.70;2.27;;;;;;;9.26;100.00;99839.31;4836745;29;20067;-90
2022/12/29 01:11:06;;;;;;;2.47;2.30;;;;;;;9.31;100.00;99831.34;4851729;29;20057;-90
2022/12/29 01:13:32;;;;;;;3.40;3.00;;;;;;;9.31;100.00;99839.44;4834090;29;20044;-90
2022/12/29 01:15:58;;;;;;;3.17;2.53;;;;;;;9.34;100.00;99838.97;4833120;29;20049;-90
2022/12/29 01:18:25;;;;;;;2.67;2.47;;;;;;;9.44;100.00;99830.34;4851277;29;20505;-90
2022/12/29 01:20:51;;;;;;;4.83;3.63;;;;;;;9.54;100.00;99832.50;4837285;29;20133;-89
2022/12/29 01:23:16;;;;;;;5.83;3.53;;;;;;;9.62;100.00;99808.63;4849310;29;20033;-90
2022/12/29 01:25:42;;;;;;;4.73;3.80;;;;;;;9.61;100.00;99831.34;4834794;29;20041;-90
2022/12/29 01:28:10;;;;;;;4.30;3.50;;;;;;;9.61;100.00;99834.06;4840028;29;20117;-90
2022/12/29 01:30:35;;;;;;;5.13;3.67;;;;;;;9.73;100.00;99838.66;4834285;29;20033;-89
2022/12/29 01:33:01;;;;;;;4.03;3.53;;;;;;;9.76;100.00;99812.00;4834884;29;20029;-90
2022/12/29 01:35:26;;;;;;;4.00;2.93;;;;;;;9.83;100.00;99828.09;4834888;29;21815;-90
2022/12/29 01:37:52;;;;;;;3.60;2.83;;;;;;;9.87;100.00;99815.75;4850436;29;20060;-90
2022/12/29 01:40:18;;;;;;;4.13;2.87;;;;;;;9.91;100.00;99819.66;4836092;29;20032;-90
2022/12/29 01:42:43;;;;;;;4.77;3.20;;;;;;;9.94;100.00;99815.66;4832794;29;20038;-90
2022/12/29 01:45:14;;;;;;;3.90;3.03;;;;;;;10.04;100.00;99820.50;4832386;29;20113;-90
2022/12/29 01:48:01;;;;;;;2.77;2.40;;;;;;;10.13;100.00;99805.56;4833303;29;20148;-90
2022/12/29 01:50:32;;;;;;;3.13;2.50;;;;;;;10.18;100.00;99818.41;4837866;29;20029;-90
2022/12/29 01:53:07;;;;;;;3.43;2.40;;;;;;;10.33;100.00;99815.22;4833866;29;20034;-90
2022/12/29 01:55:38;;;;;;;2.17;1.70;;;;;;;10.28;100.00;99814.03;4834966;29;20170;-90
2022/12/29 01:58:06;;;;;;;7.00;2.40;;;;;;;10.37;100.00;99821.84;4838998;29;20522;-90
2022/12/29 02:00:31;;;;;;;4.97;2.07;;;;;;;10.44;100.00;99817.13;4830256;29;20505;-88
2022/12/29 02:02:57;;;;;;;4.30;2.47;;;;;;;10.41;100.00;99818.41;4838349;29;20030;-90
2022/12/29 02:05:38;;;;;;;4.43;2.07;;;;;;;10.52;100.00;99824.91;4834772;29;20030;-90
2022/12/29 02:08:08;;;;;;;3.73;2.17;;;;;;;10.51;100.00;99811.59;4833506;29;21804;-91
2022/12/29 02:10:35;;;;;;;4.27;1.70;;;;;;;10.61;100.00;99811.84;4852467;29;20033;-91
2022/12/29 02:13:01;;;;;;;5.83;2.80;;;;;;;10.60;100.00;99821.81;4838518;29;20150;-90
2022/12/29 02:15:40;;;;;;;2.17;1.40;;;;;;;10.63;100.00;99826.78;4835662;29;20152;-90
2022/12/29 02:18:15;;;;;;;3.60;2.23;;;;;;;10.68;100.00;99819.84;4849858;29;20034;-90
2022/12/29 02:21:01;;;;;;;;;;;;;;;10.74;100.00;99837.84;4831604;29;20021;-89
2022/12/29 02:24:09;;;;;;;1.80;1.40;;;;;;;10.79;100.00;99835.25;4836868;29;19947;-89
2022/12/29 02:26:49;;;;;;;2.67;1.40;;;;;;;10.72;100.00;99824.53;4814322;29;20090;-90
2022/12/29 02:29:58;;;;;;;4.90;2.37;;;;;;;10.82;100.00;99818.50;4855412;29;20038;-89
2022/12/29 02:32:50;;;;;;;5.07;2.30;;;;;;;10.74;100.00;99816.16;4827631;29;20174;-90
2022/12/29 02:35:46;;;;;;;4.40;2.00;;;;;;;10.74;100.00;99803.44;4822303;29;20046;-89
2022/12/29 02:38:28;;;;;;;4.20;1.53;;;;;;;10.83;100.00;99820.16;4854938;29;20032;-90
2022/12/29 02:41:19;;;;;;;3.93;1.70;;;;;;;10.79;100.00;99803.53;4855067;29;20033;-89
2022/12/29 02:44:03;;;;;;;2.40;1.17;;;;;;;10.88;100.00;99831.09;4854849;29;20410;-90
2022/12/29 02:46:37;;;;;;;3.30;1.43;;;;;;;10.89;100.00;99804.81;4850487;29;20037;-91
2022/12/29 02:49:33;;;;;;;5.00;1.67;;;;;;;10.91;100.00;99781.84;4839568;29;20066;-90
2022/12/29 02:52:05;;;;;;;3.50;1.47;;;;;;;10.83;100.00;99808.50;4841295;29;20542;-90
2022/12/29 02:54:41;;;;;;;3.70;1.63;;;;;;;10.78;100.00;99845.25;4834638;29;20078;-90
2022/12/29 02:57:27;;;;;;;3.30;2.07;;;;;;;10.78;100.00;99811.91;4839983;29;20029;-89
2022/12/29 03:00:00;;;;;;;2.70;1.20;;;;;;;10.79;100.00;99814.38;4853806;29;20265;-89
2022/12/29 03:03:08;;;;;;;4.47;1.50;;;;;;;10.79;100.00;99817.09;4850902;29;20467;-89
2022/12/29 03:06:00;;;;;;;2.27;1.30;;;;;;;10.69;100.00;99803.34;4837476;29;20075;-90
2022/12/29 03:08:39;;;;;;;2.90;1.50;;;;;;;10.61;100.00;99804.50;4855409;29;20262;-90
2022/12/29 03:11:04;;;;;;;3.07;1.90;;;;;;;10.63;100.00;99798.84;4851037;29;20029;-90
2022/12/29 03:16:27;;;;;;;1.97;1.20;;;;;;;10.63;100.00;99798.84;4855751;29;20475;-89
2022/12/29 03:19:13;;;;;;;3.37;1.10;;;;;;;10.70;100.00;99802.25;4838228;29;20034;-90
2022/12/29 03:24:31;;;;;;;3.27;1.20;;;;;;;10.51;100.00;99795.34;4852579;29;20074;-89
2022/12/29 03:27:03;;;;;;;1.87;1.30;;;;;;;10.54;100.00;99790.28;4851691;29;20474;-90
2022/12/29 03:29:32;;;;;;;2.23;1.30;;;;;;;10.49;100.00;99801.00;4836209;29;20029;-89
2022/12/29 03:32:01;;;;;;;4.17;1.50;;;;;;;10.51;100.00;99796.16;4837051;29;20028;-90
2022/12/29 03:34:31;;;;;;;3.00;1.30;;;;;;;10.58;100.00;99817.69;4835102;29;20033;-89
2022/12/29 03:37:04;;;;;;;4.13;1.30;;;;;;;10.53;100.00;99787.81;4852720;29;20494;-90
2022/12/29 03:39:31;;;;;;;3.28;1.50;;;;;;;10.55;100.00;99789.22;4850001;29;20054;-90
2022/12/29 03:42:04;;;;;;;2.53;1.43;;;;;;;10.44;100.00;99785.47;4847580;29;20037;-88
2022/12/29 03:44:39;;;;;;;2.97;1.10;;;;;;;10.44;100.00;99790.88;4839162;29;20113;-90
2022/12/29 03:47:06;;;;;;;3.90;1.27;;;;;;;10.40;100.00;99786.16;4852547;29;20425;-89
2022/12/29 03:49:32;;;;;;;3.50;1.20;;;;;;;10.40;100.00;99802.41;4838193;29;20033;-90
2022/12/29 03:51:58;;;;;;;2.83;1.23;;;;;;;10.38;100.00;99794.53;4840250;29;20036;-90
2022/12/29 03:54:23;;;;;;;2.33;1.20;;;;;;;10.37;100.00;99802.91;4840923;29;20029;-90
2022/12/29 03:56:49;;;;;;;4.37;1.80;;;;;;;10.30;100.00;99771.31;4852282;29;20061;-89
2022/12/29 03:59:14;;;;;;;3.67;1.37;;;;;;;10.29;100.00;99791.34;4840568;29;20051;-90
2022/12/29 04:01:40;;;;;;;2.03;1.30;;;;;;;10.24;100.00;99807.47;4834135;29;20029;-89
2022/12/29 04:04:05;;;;;;;2.93;1.30;;;;;;;10.24;100.00;99799.34;4840472;29;20038;-89
2022/12/29 04:06:31;;;;;;;3.37;1.20;;;;;;;10.21;100.00;99786.25;4849277;29;20065;-89
2022/12/29 04:08:56;;;;;;;3.57;1.40;;;;;;;10.18;100.00;99813.78;4853719;29;20025;-89
2022/12/29 04:11:22;;;;;;;4.87;1.63;;;;;;;10.16;100.00;99818.63;4853815;29;20170;-90
2022/12/29 04:13:48;;;;;;;3.60;1.10;;;;;;;10.11;100.00;99827.44;4840794;29;20029;-90
2022/12/29 04:16:13;;;;;;;5.07;1.40;;;;;;;10.05;100.00;99804.03;4849673;29;20034;-90
2022/12/29 04:18:38;;;;;;;7.17;1.57;;;;;;;10.04;100.00;99796.16;4850588;29;20025;-90
2022/12/29 04:21:07;;;;;;;4.70;1.53;;;;;;;9.85;100.00;99815.16;4839173;29;20037;-89
2022/12/29 04:23:35;;;;;;;5.10;1.60;;;;;;;9.64;100.00;99811.13;4836700;29;20086;-90
2022/12/29 04:26:01;;;;;;;3.23;1.10;;;;;;;9.65;100.00;99833.59;4834923;29;20030;-90
2022/12/29 04:28:26;;;;;;;4.10;1.20;;;;;;;9.62;100.00;99810.53;4834281;29;20029;-89
2022/12/29 04:30:52;;;;;;;4.83;1.60;;;;;;;9.49;100.00;99827.75;4849320;29;20029;-90
2022/12/29 04:33:21;;;;;;;5.63;1.77;;;;;;;9.58;100.00;99799.34;4836567;29;20109;-89
2022/12/29 04:35:49;;;;;;;6.70;1.60;;;;;;;9.54;100.00;99797.34;4851827;29;20029;-89
2022/12/29 04:38:15;;;;;;;4.60;1.50;;;;;;;9.41;100.00;99809.16;4834446;29;20680;-89
2022/12/29 04:40:44;;;;;;;5.20;1.40;;;;;;;9.39;100.00;99822.09;4839491;29;20464;-90
2022/12/29 04:43:09;;;;;;;3.90;1.50;;;;;;;9.34;100.00;99816.53;4829924;29;20062;-90
2022/12/29 04:53:25;;;;;;;5.13;1.80;;;;;;;9.40;100.00;99783.19;5753187;24;20938;-90
2022/12/29 04:55:51;;;;;;;8.23;2.13;;;;;;;9.35;100.00;99835.22;4822920;29;20405;-90
2022/12/29 04:58:18;;;;;;;6.93;1.50;;;;;;;9.36;100.00;99849.59;4818960;29;20045;-89
2022/12/29 05:00:43;;;;;;;7.23;1.60;;;;;;;9.35;100.00;99845.22;4822381;29;20030;-89
2022/12/29 05:03:09;;;;;;;7.50;2.00;;;;;;;9.35;100.00;99837.13;4819654;29;20042;-89
2022/12/29 05:05:34;;;;;;;6.23;1.80;;;;;;;9.39;100.00;99862.66;4838325;29;20844;-90
2022/12/29 05:07:59;;;;;;;6.37;1.73;;;;;;;9.33;100.00;99850.03;4838002;29;20038;-90
2022/12/29 05:10:25;;;;;;;6.00;2.10;;;;;;;9.31;100.00;99862.97;4822520;29;20150;-90
2022/12/29 05:12:50;;;;;;;5.33;1.53;;;;;;;9.29;100.00;99855.09;4822335;29;20058;-90
2022/12/29 05:15:16;;;;;;;9.63;1.80;;;;;;;9.20;100.00;99867.25;4826179;29;20063;-90
2022/12/29 05:17:41;;;;;;;4.70;1.67;;;;;;;9.20;100.00;99876.19;4823144;29;20030;-90
2022/12/29 05:20:08;;;;;;;6.03;1.50;;;;;;;9.26;100.00;99866.34;4837307;29;20228;-89
2022/12/29 05:22:33;;;;;;;4.90;1.83;;;;;;;9.29;100.00;99882.13;4819407;29;20022;-90
2022/12/29 05:25:01;;;;;;;5.43;1.87;;;;;;;9.21;100.00;99891.34;4838050;29;21044;-90
2022/12/29 05:27:26;;;;;;;6.67;1.70;;;;;;;9.24;100.00;99896.28;4822031;29;20036;-90
2022/12/29 05:29:52;;;;;;;8.30;2.10;;;;;;;9.23;100.00;99878.44;4838092;29;20029;-90
2022/12/29 05:32:17;;;;;;;7.53;1.77;;;;;;;9.26;100.00;99887.94;4824148;29;20030;-90
2022/12/29 05:34:43;;;;;;;7.77;2.03;;;;;;;9.28;100.00;99892.09;4842542;29;20030;-90
2022/12/29 05:37:08;;;;;;;6.60;1.73;;;;;;;9.32;100.00;99892.47;4813493;29;20557;-90
2022/12/29 05:39:33;;;;;;;6.57;2.03;;;;;;;9.34;100.00;99911.97;4822684;29;20077;-89
2022/12/29 05:41:59;;;;;;;7.27;2.07;;;;;;;9.35;100.00;99893.91;4842934;29;20026;-89
2022/12/29 05:44:26;;;;;;;6.20;1.60;;;;;;;9.37;100.00;99900.72;4822655;29;20965;-90
2022/12/29 05:46:52;;;;;;;6.87;2.00;;;;;;;9.41;100.00;99899.22;4834997;29;20042;-90
2022/12/29 05:49:17;;;;;;;7.77;1.90;;;;;;;9.42;100.00;99897.34;4842282;29;20030;-90
2022/12/29 05:51:43;;;;;;;7.47;2.07;;;;;;;9.42;100.00;99894.63;4841286;29;20417;-90
2022/12/29 05:54:08;;;;;;;7.67;1.70;;;;;;;9.45;100.00;99902.28;4813603;29;20057;-90
2022/12/29 05:56:34;;;;;;;5.03;1.77;;;;;;;9.52;100.00;99908.44;4845965;29;20037;-91
2022/12/29 05:59:00;;;;;;;5.77;1.80;;;;;;;9.54;100.00;99919.84;4871747;29;20021;-90
2022/12/29 06:01:25;;;;;;;5.87;1.60;;;;;;;9.52;100.00;99903.03;4856445;29;20033;-89
2022/12/29 06:03:51;;;;;;;7.03;1.67;;;;;;;9.56;100.00;99917.75;4851979;29;20445;-89
2022/12/29 06:06:16;;;;;;;4.73;1.40;;;;;;;9.60;99.93;99916.25;4868084;29;20464;-90
2022/12/29 06:08:42;;;;;;;4.90;1.63;;;;;;;9.51;100.00;99911.38;4851299;29;20026;-90
2022/12/29 06:11:07;;;;;;;5.83;1.57;;;;;;;9.57;99.48;99911.31;4852232;29;20461;-90
2022/12/29 06:13:33;;;;;;;7.27;1.90;;;;;;;9.64;98.85;99922.00;4847220;29;20025;-89
2022/12/29 06:15:58;;;;;;;8.80;1.80;;;;;;;9.63;98.59;99910.38;4830861;29;20033;-90
2022/12/29 06:18:23;;;;;;;3.70;1.33;;;;;;;9.69;97.98;99914.03;4856463;29;20116;-90
2022/12/29 06:20:49;;;;;;;5.57;1.63;;;;;;;9.64;97.64;99911.19;4849823;29;20437;-89
2022/12/29 06:23:15;;;;;;;7.00;1.60;;;;;;;9.68;97.43;99911.56;4870804;29;20040;-90
2022/12/29 06:25:40;;;;;;;5.67;1.73;;;;;;;9.71;96.59;99917.34;4864132;29;20044;-90
2022/12/29 06:28:08;;;;;;;5.90;1.50;;;;;;;9.70;96.51;99914.88;4849978;29;20033;-89
2022/12/29 06:30:34;;;;;;;7.47;1.57;;;;;;;9.73;96.15;99903.59;4843637;29;20039;-90
2022/12/29 06:32:59;;;;;;;5.33;1.27;;;;;;;9.63;96.52;99899.56;4851822;29;20469;-89
2022/12/29 06:35:25;;;;;;;4.97;1.60;;;;;;;9.70;95.04;99902.16;4851065;29;20073;-90
2022/12/29 06:37:51;;;;;;;3.70;1.43;;;;;;;9.67;95.63;99901.78;4865016;29;20027;-90
2022/12/29 06:40:16;;;;;;;6.80;1.77;;;;;;;9.64;96.10;99900.38;4849787;29;20056;-91
2022/12/29 06:42:42;;;;;;;7.17;1.77;;;;;;;9.55;96.40;99902.56;4867440;29;20494;-89
2022/12/29 06:45:07;;;;;;;7.73;2.00;;;;;;;9.57;95.49;99895.06;4851792;29;20041;-89
2022/12/29 06:47:34;;;;;;;6.50;1.80;;;;;;;9.59;95.31;99914.59;4855435;29;20053;-90
2022/12/29 06:49:59;;;;;;;8.47;2.20;;;;;;;9.62;95.06;99903.31;4847086;29;20068;-90
2022/12/29 06:52:25;;;;;;;6.77;1.67;;;;;;;9.57;95.86;99896.94;4848535;29;20063;-90
2022/12/29 06:54:51;;;;;;;5.47;1.83;;;;;;;9.62;95.75;99902.50;4846195;29;20053;-90
2022/12/29 06:57:16;;;;;;;7.67;1.83;;;;;;;9.59;95.58;99908.38;4850280;29;20089;-90
2022/12/29 06:59:41;;;;;;;8.10;1.73;;;;;;;9.65;94.97;99880.38;4851619;29;20389;-90
2022/12/29 07:02:10;;;;;;;7.40;2.17;;;;;;;9.68;94.79;99895.34;4848891;29;20041;-90
2022/12/29 07:04:35;;;;;;;7.70;1.90;;;;;;;9.74;94.53;99910.66;4844764;29;20101;-90
2022/12/29 07:07:00;;;;;;;7.77;1.93;;;;;;;9.69;94.96;99891.59;4863652;29;20025;-90
2022/12/29 07:09:26;;;;;;;6.70;2.00;;;;;;;9.70;94.98;99909.47;4851732;29;20025;-89
2022/12/29 07:11:51;;;;;;;9.43;2.00;;;;;;;9.68;95.33;99900.75;4862523;29;20104;-90
2022/12/29 07:14:17;;;;;;;6.17;1.80;;;;;;;9.73;94.99;99917.13;4870548;29;20037;-90
2022/12/29 07:16:42;;;;;;;8.17;2.17;;;;;;;9.83;93.86;99908.44;4854071;29;20033;-90
2022/12/29 07:19:08;;;;;;;11.10;2.30;;;;;;;9.84;94.06;99920.94;4862297;29;20041;-90
2022/12/29 07:21:33;;;;;;;8.37;2.10;;;;;;;9.81;93.49;99943.84;4865689;29;20080;-89
2022/12/29 07:23:59;;;;;;;6.47;2.00;;;;;;;9.80;93.49;99920.53;4865067;29;20056;-89
2022/12/29 07:26:24;;;;;;;9.93;2.30;;;;;;;9.78;93.12;99933.50;4856333;29;20040;-90
2022/12/29 07:28:50;;;;;;;8.90;2.50;;;;;;;9.73;93.53;99950.38;4852322;29;20076;-89
2022/12/29 07:31:18;;;;;;;9.90;2.27;;;;;;;9.74;92.84;99946.63;4866046;29;20040;-90
2022/12/29 07:33:44;;;;;;;8.73;2.17;;;;;;;9.80;92.06;99961.13;4849807;29;20157;-90
2022/12/29 07:36:11;;;;;;;8.77;2.50;;;;;;;9.74;91.95;99956.66;4848634;29;20029;-90
2022/12/29 07:38:36;;;;;;;9.10;2.30;;;;;;;9.68;91.77;99963.78;4845558;29;20037;-89
2022/12/29 07:41:02;;;;;;;8.80;2.33;;;;;;;9.73;90.17;99953.09;4850929;29;20426;-89
2022/12/29 07:43:28;;;;;;;9.50;2.10;;;;;;;9.69;90.15;99970.03;4847941;29;20462;-89
2022/12/29 07:45:53;;;;;;;9.07;2.13;;;;;;;9.66;89.72;99948.84;4847904;29;21507;-89
2022/12/29 07:48:19;;;;;;;10.67;2.43;;;;;;;9.68;88.28;99974.59;4856196;29;20033;-91
2022/12/29 07:50:44;;;;;;;10.33;2.27;;;;;;;9.77;87.31;99958.88;4854260;29;20040;-91
2022/12/29 07:53:10;;;;;;;8.33;1.93;;;;;;;9.67;88.75;99966.69;4864398;29;20050;-90
2022/12/29 07:55:35;;;;;;;9.10;2.03;;;;;;;9.59;89.42;99970.56;4864734;29;20056;-91
2022/12/29 07:58:01;;;;;;;9.97;2.50;;;;;;;9.70;89.14;99974.38;4849531;29;20097;-89
2022/12/29 08:00:27;;;;;;;10.27;2.73;;;;;;;9.63;89.71;99959.06;4847682;29;20029;-90
2022/12/29 08:02:52;;;;;;;8.50;2.37;;;;;;;9.68;89.38;99979.19;4866793;29;20121;-90
2022/12/29 08:05:18;;;;;;;9.73;2.03;;;;;;;9.71;89.46;99986.84;4849676;29;20033;-91
2022/12/29 08:07:46;;;;;;;10.47;2.43;;;;;;;9.63;89.85;99980.69;4845459;29;20033;-90
2022/12/29 08:10:14;;;;;;;9.60;2.27;;;;;;;9.69;89.66;99989.78;4849006;29;20069;-90
2022/12/29 08:12:41;;;;;;;10.63;2.53;;;;;;;9.64;90.38;99986.91;4852507;29;20033;-90
2022/12/29 08:15:08;;;;;;;9.73;2.43;;;;;;;9.67;90.77;99980.22;4834813;29;20041;-91
2022/12/29 08:17:33;;;;;;;8.97;2.40;;;;;;;9.63;91.65;99990.69;4865743;29;20045;-90
2022/12/29 08:19:59;;;;;;;8.43;2.03;;;;;;;9.60;91.19;99986.56;4849570;29;20242;-89
2022/12/29 08:22:24;;;;;;;10.10;2.90;;;;;;;9.65;90.95;99993.16;4848288;29;20029;-90
2022/12/29 08:24:50;;;;;;;11.03;2.37;;;;;;;9.57;92.10;99989.72;4852361;29;20041;-90
2022/12/29 08:27:15;;;;;;;9.53;2.50;;;;;;;9.68;90.27;99990.81;4848198;29;21120;-90
2022/12/29 08:29:41;;;;;;;11.33;2.60;;;;;;;9.75;89.68;99998.84;4847064;29;20429;-89
2022/12/29 08:32:06;;;;;;;11.63;2.50;;;;;;;9.78;88.01;99998.41;4844747;29;20036;-90
2022/12/29 08:34:32;;;;;;;12.03;2.33;;;;;;;9.84;87.31;100008.31;4842216;29;20128;-90
2022/12/29 08:36:58;;;;;;;10.20;2.70;;;;;;;9.85;87.23;99984.81;4850693;29;20029;-90
2022/12/29 08:39:23;;;;;;;12.47;2.70;;;;;;;9.86;86.99;99998.09;4845644;29;20036;-90
2022/12/29 08:41:49;;;;;;;9.37;2.13;;;;;;;9.91;85.60;99994.69;4848700;29;20037;-90
2022/12/29 08:44:14;;;;;;;9.33;2.53;;;;;;;9.88;86.47;100001.41;4867003;29;20401;-89
2022/12/29 08:46:40;;;;;;;10.43;2.73;;;;;;;9.86;86.15;99981.88;4842838;29;20029;-89
2022/12/29 08:49:05;;;;;;;11.17;2.40;;;;;;;9.84;86.64;99989.38;4844957;29;20037;-90
2022/12/29 08:51:31;;;;;;;10.37;2.30;;;;;;;9.92;86.06;100004.47;4849467;29;20119;-89
2022/12/29 08:53:56;;;;;;;11.00;2.77;;;;;;;9.95;85.62;99993.19;4863401;29;20053;-90
2022/12/29 08:56:23;;;;;;;11.07;2.20;;;;;;;9.93;85.57;100001.53;4841361;29;20453;-89
2022/12/29 08:58:49;;;;;;;10.07;2.60;;;;;;;10.00;84.55;99996.03;4867216;29;20520;-86
2022/12/29 09:01:15;;;;;;;12.80;2.47;;;;;;;10.04;84.42;99991.00;4831707;29;20038;-86
2022/12/29 09:03:40;;;;;;;9.97;2.33;;;;;;;10.10;83.85;99971.13;4833477;29;20042;-86
2022/12/29 09:06:06;;;;;;;9.43;2.37;;;;;;;10.07;84.81;99995.97;4832996;29;20038;-86
2022/12/29 09:08:31;;;;;;;10.53;2.57;;;;;;;10.07;84.72;99980.53;4846587;29;20389;-86
2022/12/29 09:11:09;;;;;;;13.20;2.87;;;;;;;10.10;85.23;100006.31;4837677;29;20033;-87
2022/12/29 09:13:38;;;;;;;9.43;2.23;;;;;;;10.09;84.68;100026.31;4850758;29;20069;-86
2022/12/29 09:16:04;;;;;;;10.33;2.53;;;;;;;10.06;84.97;100032.19;4863371;29;20057;-86
2022/12/29 09:18:30;;;;;;;12.27;2.83;;;;;;;10.09;85.49;99988.41;4858132;29;20112;-86
2022/12/29 09:21:04;;;;;;;9.10;2.20;;;;;;;10.01;86.34;99976.06;4858730;29;20037;-86
2022/12/29 09:23:30;;;;;;;;;;;;;;;10.39;84.90;100022.81;4848314;29;20041;-86
2022/12/29 09:25:57;;;;;;;8.37;2.00;;;;;;;10.11;85.89;100019.63;4833584;29;19927;-88
2022/12/29 09:28:22;;;;;;;11.10;2.50;;;;;;;10.06;86.93;100010.53;4847780;29;20037;-88
2022/12/29 09:30:49;;;;;;;8.47;2.30;;;;;;;10.05;87.83;100053.03;4861305;29;20465;-87
2022/12/29 09:33:15;;;;;;;8.07;2.40;;;;;;;9.97;88.97;100020.88;4847119;29;20089;-88
2022/12/29 09:35:44;;;;;;;7.37;1.90;;;;;;;9.87;90.96;100017.84;4842247;29;20041;-88
2022/12/29 09:38:10;;;;;;;8.60;2.33;;;;;;;9.77;91.90;100040.03;4842601;29;20128;-88
2022/12/29 09:40:37;;;;;;;9.40;2.30;;;;;;;9.74;91.52;100037.81;4864076;29;20074;-88
2022/12/29 09:43:39;;;;;;;11.03;2.33;;;;;;;9.90;91.70;100075.06;4851952;29;20033;-88
2022/12/29 09:46:26;;;;;;;8.10;2.40;;;;;;;9.72;91.31;100105.63;4855514;29;20037;-88
2022/12/29 09:49:08;;;;;;;11.50;2.73;;;;;;;9.72;93.08;100064.25;4851962;29;20041;-88
2022/12/29 09:51:38;;;;;;;6.47;2.07;;;;;;;9.59;94.54;100049.00;4867291;29;20064;-88
2022/12/29 09:54:29;;;;;;;9.53;2.20;;;;;;;9.60;94.07;100073.09;4843401;29;20201;-88
2022/12/29 09:56:55;;;;;;;11.23;2.37;;;;;;;9.47;94.87;100075.94;4840851;29;20116;-88
2022/12/29 09:59:26;;;;;;;9.27;2.30;;;;;;;9.46;95.85;100074.28;4825017;29;20044;-87
2022/12/29 10:02:04;;;;;;;11.20;2.70;;;;;;;9.42;96.85;100094.72;4852218;29;20479;-86
2022/12/29 10:04:30;;;;;;;10.80;2.43;;;;;;;9.32;98.79;100080.88;4862569;29;20116;-87
2022/12/29 10:07:24;;;;;;;10.47;2.27;;;;;;;9.34;98.62;100105.81;4840179;29;20137;-87
2022/12/29 10:10:08;;;;;;;8.63;2.37;;;;;;;9.26;99.57;100091.53;4862951;29;20442;-87
2022/12/29 10:13:08;;;;;;;8.93;2.10;;;;;;;9.18;100.00;100086.41;4854613;29;20443;-86
2022/12/29 10:15:58;;;;;;;13.10;3.37;;;;;;;9.13;100.00;100086.25;4847649;29;20038;-87
2022/12/29 10:19:11;;;;;;;8.40;1.93;;;;;;;9.15;100.00;100115.75;4849659;29;20059;-86
2022/12/29 10:21:55;;;;;;;13.30;2.67;;;;;;;9.04;100.00;100122.69;4803207;29;20129;-87
2022/12/29 10:24:21;;;;;;;8.53;2.17;;;;;;;9.02;100.00;100114.81;4841267;29;20083;-86
2022/12/29 10:26:50;;;;;;;10.00;2.60;;;;;;;9.01;100.00;100123.13;4848379;29;20055;-86
2022/12/29 10:29:20;;;;;;;8.10;2.00;;;;;;;8.93;100.00;100160.19;4853905;29;20037;-87
2022/12/29 10:31:58;;;;;;;7.53;2.33;;;;;;;8.89;100.00;100145.44;4869719;29;20117;-88
2022/12/29 10:34:29;;;;;;;10.93;2.20;;;;;;;8.85;100.00;100155.00;4867061;29;20033;-86
2022/12/29 10:37:10;;;;;;;14.30;3.03;;;;;;;8.85;100.00;100157.72;4863150;29;20029;-86
2022/12/29 10:39:50;;;;;;;11.33;2.97;;;;;;;8.90;100.00;100155.19;4855177;29;20056;-86
2022/12/29 10:42:27;;;;;;;12.93;2.70;;;;;;;8.79;100.00;100158.59;4851740;29;20040;-87
2022/12/29 10:44:54;;;;;;;9.93;3.07;;;;;;;8.82;100.00;100176.25;4851547;29;20025;-86
2022/12/29 10:47:28;;;;;;;10.67;2.60;;;;;;;8.84;100.00;100179.53;4838581;29;20040;-87
2022/12/29 10:49:54;;;;;;;10.55;2.50;;;;;;;8.88;100.00;100172.66;4852324;29;20037;-86
2022/12/29 10:52:22;;;;;;;10.03;2.50;;;;;;;8.85;100.00;100173.91;4850661;29;20065;-87
2022/12/29 10:54:51;;;;;;;10.93;3.53;;;;;;;8.80;100.00;100181.88;4852854;29;20108;-89
2022/12/29 10:57:25;;;;;;;9.60;2.30;;;;;;;8.74;100.00;100166.53;4865411;29;20467;-86
2022/12/29 10:59:54;;;;;;;10.75;2.70;;;;;;;8.70;100.00;100187.72;4862717;29;20033;-86
2022/12/29 11:02:38;;;;;;;11.10;2.87;;;;;;;8.74;100.00;100188.97;4861442;29;20033;-86
2022/12/29 11:05:22;;;;;;;10.35;2.58;;;;;;;8.75;100.00;100204.13;4850281;29;20116;-86
2022/12/29 11:07:52;;;;;;;11.57;2.53;;;;;;;8.73;100.00;100205.38;4855753;29;20034;-86
2022/12/29 11:10:38;;;;;;;13.47;2.70;;;;;;;8.68;100.00;100211.44;4849205;29;20030;-87
2022/12/29 11:13:11;;;;;;;12.53;3.10;;;;;;;8.74;100.00;100210.56;4861629;29;20061;-86
2022/12/29 11:15:45;;;;;;;10.47;2.70;;;;;;;8.79;100.00;100209.91;4853693;29;20033;-87
2022/12/29 11:18:25;;;;;;;10.32;2.33;;;;;;;8.86;100.00;100218.00;4836026;29;20038;-89
2022/12/29 11:20:54;;;;;;;10.87;2.63;;;;;;;8.91;100.00;100215.47;4850959;29;20616;-89
2022/12/29 11:23:31;;;;;;;9.93;2.63;;;;;;;8.98;100.00;100221.66;4848983;29;20497;-89
2022/12/29 11:26:18;;;;;;;15.03;3.63;;;;;;;9.02;100.00;100222.06;4838414;29;20040;-88
2022/12/29 11:29:05;;;;;;;10.13;2.50;;;;;;;9.01;100.00;100233.91;4865011;29;20032;-89
2022/12/29 11:31:39;;;;;;;12.00;3.03;;;;;;;9.08;100.00;100232.00;4837197;29;20498;-89
2022/12/29 11:34:07;;;;;;;9.40;3.05;;;;;;;9.07;100.00;100236.59;4866811;29;20041;-88
2022/12/29 11:36:34;;;;;;;11.17;2.77;;;;;;;9.02;100.00;100249.09;4836162;29;20890;-89
2022/12/29 11:39:00;;;;;;;12.23;2.93;;;;;;;9.08;100.00;100245.50;4849067;29;20036;-86
2022/12/29 11:41:28;;;;;;;13.90;3.10;;;;;;;9.11;100.00;100250.47;4850918;29;20058;-86
2022/12/29 11:43:58;;;;;;;11.60;3.10;;;;;;;9.10;100.00;100251.53;4852343;29;20191;-86
2022/12/29 11:46:33;;;;;;;12.60;2.93;;;;;;;9.28;100.00;100264.31;4856657;29;20033;-86
2022/12/29 11:49:00;;;;;;;11.23;3.03;;;;;;;9.28;100.00;100242.69;4859846;29;20093;-86
2022/12/29 11:51:47;;;;;;;11.17;3.07;;;;;;;9.26;100.00;100240.22;4859416;29;20454;-87
2022/12/29 11:54:37;;;;;;;14.33;3.20;;;;;;;9.24;100.00;100253.09;4845980;29;20061;-89
2022/12/29 11:57:15;;;;;;;13.43;3.40;;;;;;;9.36;100.00;100265.94;4868139;29;20044;-88
2022/12/29 11:59:48;;;;;;;12.50;3.23;;;;;;;9.34;100.00;100284.25;4868975;29;20435;-90
2022/12/29 12:02:16;;;;;;;13.40;3.43;;;;;;;9.38;100.00;100280.88;4859539;29;20029;-88
2022/12/29 12:04:42;;;;;;;10.87;3.07;;;;;;;9.33;100.00;100277.16;4842075;29;20398;-90
2022/12/29 12:07:07;;;;;;;13.97;3.20;;;;;;;9.42;100.00;100276.72;4843406;29;20041;-90
2022/12/29 12:09:37;;;;;;;12.30;2.80;;;;;;;9.41;100.00;100258.81;4849983;29;20063;-89
2022/12/29 12:12:03;;;;;;;12.37;3.67;;;;;;;9.45;100.00;100259.19;4867345;29;20054;-87
2022/12/29 12:14:38;;;;;;;14.67;3.23;;;;;;;9.55;100.00;100281.19;4861762;29;20505;-87
2022/12/29 12:17:16;;;;;;;12.20;3.47;;;;;;;9.56;99.38;100271.19;4848048;29;20060;-87
2022/12/29 12:19:54;;;;;;;10.70;3.07;;;;;;;9.56;100.00;100261.22;4864972;29;20394;-87
2022/12/29 12:22:37;;;;;;;14.30;3.53;;;;;;;9.59;99.40;100268.06;4864738;29;20073;-87
2022/12/29 12:25:29;;;;;;;11.67;2.67;;;;;;;9.45;100.00;100254.63;4839973;29;20070;-87